createdAt,value
2018-10-04T00:00:35.790Z,5.10
2018-10-04T00:03:02.922Z,5.27
2018-10-04T00:05:30.034Z,5.20
2018-10-04T00:07:57.184Z,5.57
2018-10-04T00:10:24.555Z,4.83
2018-10-04T00:12:51.690Z,4.83
2018-10-04T00:15:18.787Z,4.60
2018-10-04T00:17:45.874Z,4.40
2018-10-04T00:20:12.978Z,4.83
2018-10-04T00:22:40.077Z,5.20
2018-10-04T00:25:07.215Z,4.87
2018-10-04T00:27:34.303Z,5.03
2018-10-04T00:30:01.403Z,5.83
2018-10-04T00:32:28.519Z,5.00
2018-10-04T00:34:55.633Z,4.80
2018-10-04T00:37:22.778Z,4.83
2018-10-04T00:39:49.873Z,4.80
2018-10-04T00:42:16.958Z,4.80
2018-10-04T00:44:44.054Z,4.77
2018-10-04T00:47:18.058Z,5.13
2018-10-04T00:49:46.164Z,4.50
2018-10-04T00:52:13.297Z,5.63
2018-10-04T00:54:40.409Z,4.80
2018-10-04T00:57:07.521Z,4.87
2018-10-04T00:59:34.989Z,4.77
2018-10-04T01:02:02.098Z,5.40
2018-10-04T01:04:29.279Z,5.43
2018-10-04T01:06:56.515Z,5.47
2018-10-04T01:09:23.615Z,5.40
2018-10-04T01:11:50.739Z,5.40
2018-10-04T01:14:17.912Z,5.43
2018-10-04T01:16:45.006Z,5.30
2018-10-04T01:19:12.128Z,5.00
2018-10-04T01:21:39.218Z,5.30
2018-10-04T01:24:06.369Z,5.23
2018-10-04T01:26:33.515Z,5.60
2018-10-04T01:29:00.630Z,5.10
2018-10-04T01:31:27.882Z,5.10
2018-10-04T01:33:54.906Z,4.90
2018-10-04T01:36:22.168Z,5.20
2018-10-04T01:38:49.277Z,5.20
2018-10-04T01:41:16.419Z,4.93
2018-10-04T01:43:43.550Z,5.23
2018-10-04T01:46:10.639Z,4.80
2018-10-04T01:48:37.868Z,4.50
2018-10-04T01:51:05.037Z,4.40
2018-10-04T01:53:32.286Z,5.07
2018-10-04T01:55:59.408Z,5.50
2018-10-04T01:58:26.497Z,4.70
2018-10-04T02:03:27.499Z,4.70
2018-10-04T02:05:55.675Z,5.13
2018-10-04T02:08:22.766Z,5.53
2018-10-04T02:10:49.870Z,5.20
2018-10-04T02:13:16.957Z,4.90
2018-10-04T02:15:44.066Z,5.07
2018-10-04T02:18:11.155Z,4.70
2018-10-04T02:20:38.363Z,5.07
2018-10-04T02:23:05.450Z,5.00
2018-10-04T02:25:32.586Z,4.80
2018-10-04T02:27:59.745Z,5.10
2018-10-04T02:30:26.858Z,5.10
2018-10-04T02:32:53.956Z,5.60
2018-10-04T02:35:21.041Z,5.20
2018-10-04T02:37:48.183Z,5.10
2018-10-04T02:40:15.296Z,4.80
2018-10-04T02:42:42.559Z,5.57
2018-10-04T02:45:09.595Z,5.70
2018-10-04T02:47:36.709Z,5.20
2018-10-04T02:50:03.871Z,5.17
2018-10-04T02:52:31.219Z,5.03
2018-10-04T02:55:03.867Z,5.10
2018-10-04T02:57:31.156Z,5.57
2018-10-04T02:59:58.390Z,5.50
2018-10-04T03:02:25.494Z,5.47
2018-10-04T03:04:52.590Z,5.60
2018-10-04T03:07:19.701Z,5.80
2018-10-04T03:09:46.870Z,5.73
2018-10-04T03:12:13.966Z,5.80
2018-10-04T03:14:41.090Z,5.60
2018-10-04T03:17:08.202Z,5.80
2018-10-04T03:19:35.373Z,6.30
2018-10-04T03:22:02.532Z,6.77
2018-10-04T03:24:29.699Z,6.10
2018-10-04T03:26:56.850Z,6.20
2018-10-04T03:29:24.019Z,6.20
2018-10-04T03:31:51.203Z,6.13
2018-10-04T03:34:18.311Z,6.57
2018-10-04T03:36:45.407Z,6.70
2018-10-04T03:39:12.506Z,6.70
2018-10-04T03:41:39.631Z,6.33
2018-10-04T03:44:06.802Z,6.37
2018-10-04T03:46:33.891Z,6.47
2018-10-04T03:49:00.998Z,6.33
2018-10-04T03:51:28.104Z,6.60
2018-10-04T03:53:55.198Z,6.87
2018-10-04T03:56:22.293Z,6.10
2018-10-04T03:58:49.383Z,6.40
2018-10-04T04:01:16.477Z,7.23
2018-10-04T04:03:43.623Z,7.17
2018-10-04T04:06:10.743Z,7.50
2018-10-04T04:08:37.835Z,6.93
2018-10-04T04:11:04.987Z,7.33
2018-10-04T04:13:32.079Z,7.00
2018-10-04T04:15:59.203Z,7.60
2018-10-04T04:18:26.299Z,6.60
2018-10-04T04:20:53.406Z,7.00
2018-10-04T04:23:20.530Z,7.50
2018-10-04T04:25:47.692Z,7.07
2018-10-04T04:28:14.804Z,7.47
2018-10-04T04:30:42.001Z,6.90
2018-10-04T04:33:09.127Z,7.20
2018-10-04T04:35:36.219Z,7.10
2018-10-04T04:38:03.325Z,7.17
2018-10-04T04:40:30.557Z,6.57
2018-10-04T04:42:57.658Z,7.03
2018-10-04T04:45:24.790Z,6.50
2018-10-04T04:47:52.692Z,6.70
2018-10-04T04:50:19.813Z,6.53
2018-10-04T04:52:46.983Z,6.50
2018-10-04T04:55:18.422Z,6.70
2018-10-04T04:57:45.537Z,6.70
2018-10-04T05:00:12.642Z,6.60
2018-10-04T05:02:39.843Z,6.30
2018-10-04T05:05:07.014Z,5.97
2018-10-04T05:07:34.560Z,6.33
2018-10-04T05:10:02.616Z,6.53
2018-10-04T05:12:29.709Z,7.03
2018-10-04T05:14:56.831Z,6.70
2018-10-04T05:17:23.929Z,7.13
2018-10-04T05:19:51.030Z,6.90
2018-10-04T05:22:18.176Z,7.40
2018-10-04T05:24:45.326Z,6.70
2018-10-04T05:27:12.459Z,7.20
2018-10-04T05:29:39.619Z,7.33
2018-10-04T05:32:06.760Z,6.90
2018-10-04T05:34:33.905Z,6.90
2018-10-04T05:37:01.097Z,7.20
2018-10-04T05:39:28.251Z,7.20
2018-10-04T05:41:55.406Z,7.70
2018-10-04T05:44:22.518Z,7.73
2018-10-04T05:46:49.662Z,7.03
2018-10-04T05:49:16.766Z,7.57
2018-10-04T05:51:43.862Z,7.70
2018-10-04T05:54:10.994Z,7.27
2018-10-04T05:56:38.099Z,7.10
2018-10-04T05:59:05.300Z,7.67
2018-10-04T06:01:32.396Z,7.60
2018-10-04T06:03:59.503Z,7.90
2018-10-04T06:06:26.638Z,7.13
2018-10-04T06:08:53.853Z,7.90
2018-10-04T06:11:20.986Z,7.80
2018-10-04T06:13:48.071Z,7.30
2018-10-04T06:16:15.170Z,7.40
2018-10-04T06:18:42.280Z,6.97
2018-10-04T06:21:09.381Z,6.90
2018-10-04T06:23:36.550Z,6.77
2018-10-04T06:26:03.668Z,7.13
2018-10-04T06:28:30.813Z,7.40
2018-10-04T06:30:57.870Z,6.80
2018-10-04T06:33:25.018Z,6.80
2018-10-04T06:35:52.143Z,6.50
2018-10-04T06:38:19.247Z,7.07
2018-10-04T06:40:46.394Z,7.67
2018-10-04T06:43:13.576Z,7.43
2018-10-04T06:45:40.829Z,7.20
2018-10-04T06:48:07.927Z,7.40
2018-10-04T06:50:35.015Z,7.50
2018-10-04T06:53:02.161Z,7.70
2018-10-04T06:55:29.275Z,7.57
2018-10-04T06:57:56.438Z,7.10
2018-10-04T07:00:23.586Z,7.00
2018-10-04T07:02:50.759Z,7.23
2018-10-04T07:05:17.884Z,6.57
2018-10-04T07:07:45.041Z,6.60
2018-10-04T07:10:12.216Z,7.13
2018-10-04T07:12:39.334Z,6.23
2018-10-04T07:15:06.480Z,6.60
2018-10-04T07:17:33.583Z,6.27
2018-10-04T07:20:00.770Z,6.20
2018-10-04T07:22:27.933Z,7.10
2018-10-04T07:24:55.126Z,6.43
2018-10-04T07:27:22.266Z,6.47
2018-10-04T07:29:49.378Z,7.40
2018-10-04T07:32:16.534Z,6.43
2018-10-04T07:34:43.681Z,6.30
2018-10-04T07:37:10.859Z,7.10
2018-10-04T07:39:38.314Z,7.13
2018-10-04T07:42:05.479Z,6.87
2018-10-04T07:44:32.526Z,7.20
2018-10-04T07:46:59.641Z,6.70
2018-10-04T07:49:26.771Z,7.20
2018-10-04T07:51:53.913Z,7.60
2018-10-04T07:54:21.037Z,6.80
2018-10-04T07:56:48.223Z,6.90
2018-10-04T07:59:15.345Z,6.73
2018-10-04T08:01:42.584Z,6.70
2018-10-04T08:04:09.687Z,6.73
2018-10-04T08:06:36.993Z,6.60
2018-10-04T08:09:05.082Z,6.33
2018-10-04T08:11:32.169Z,6.80
2018-10-04T08:13:59.294Z,6.50
2018-10-04T08:16:26.439Z,6.17
2018-10-04T08:18:53.551Z,6.70
2018-10-04T08:21:20.647Z,6.67
2018-10-04T08:23:47.789Z,6.20
2018-10-04T08:26:14.914Z,6.40
2018-10-04T08:28:42.016Z,6.47
2018-10-04T08:31:09.114Z,7.13
2018-10-04T08:33:36.235Z,6.30
2018-10-04T08:36:03.450Z,6.20
2018-10-04T08:38:30.566Z,6.00
2018-10-04T08:40:57.666Z,6.80
2018-10-04T08:43:24.787Z,6.00
2018-10-04T08:45:51.960Z,5.87
2018-10-04T08:48:20.004Z,5.60
2018-10-04T08:50:51.098Z,6.20
2018-10-04T08:53:18.199Z,6.47
2018-10-04T08:55:45.536Z,6.43
2018-10-04T08:58:12.636Z,6.87
2018-10-04T09:00:39.725Z,6.73
2018-10-04T09:03:06.823Z,6.50
2018-10-04T09:05:34.311Z,7.00
2018-10-04T09:08:01.454Z,6.87
2018-10-04T09:10:28.584Z,6.50
2018-10-04T09:12:55.798Z,6.53
2018-10-04T09:15:22.906Z,7.50
2018-10-04T09:17:50.139Z,6.27
2018-10-04T09:20:17.373Z,6.67
2018-10-04T09:22:44.766Z,7.40
2018-10-04T09:25:11.982Z,6.97
2018-10-04T09:27:39.119Z,6.93
2018-10-04T09:30:12.021Z,6.77
2018-10-04T09:32:39.159Z,6.20
2018-10-04T09:35:06.359Z,6.50
2018-10-04T09:37:33.473Z,7.30
2018-10-04T09:40:00.643Z,6.83
2018-10-04T09:42:27.729Z,6.50
2018-10-04T09:44:54.872Z,6.97
2018-10-04T09:47:29.086Z,7.27
2018-10-04T09:49:56.695Z,6.67
2018-10-04T09:52:23.826Z,6.80
2018-10-04T09:55:24.087Z,6.33
2018-10-04T09:57:51.203Z,6.00
2018-10-04T10:00:23.714Z,6.43
2018-10-04T10:02:58.983Z,6.33
2018-10-04T10:05:26.152Z,6.57
2018-10-04T10:07:53.287Z,6.77
2018-10-04T10:10:20.430Z,5.90
2018-10-04T10:12:47.579Z,6.00
2018-10-04T10:15:15.323Z,6.50
2018-10-04T10:17:42.595Z,6.40
2018-10-04T10:20:10.094Z,6.23
2018-10-04T10:22:37.267Z,6.60
2018-10-04T10:25:04.373Z,6.67
2018-10-04T10:27:31.618Z,6.43
2018-10-04T10:29:58.715Z,6.63
2018-10-04T10:32:26.007Z,6.20
2018-10-04T10:34:53.116Z,6.47
2018-10-04T10:37:20.275Z,6.20
2018-10-04T10:39:47.476Z,6.57
2018-10-04T10:42:14.501Z,6.60
2018-10-04T10:44:41.622Z,6.37
2018-10-04T10:47:08.838Z,7.33
2018-10-04T10:49:36.090Z,6.40
2018-10-04T10:52:03.210Z,7.30
2018-10-04T10:54:30.379Z,6.57
2018-10-04T10:56:57.556Z,6.90
2018-10-04T10:59:24.648Z,7.20
2018-10-04T11:01:51.742Z,7.30
2018-10-04T11:04:18.861Z,6.40
2018-10-04T11:06:45.954Z,7.00
2018-10-04T11:09:13.051Z,7.33
2018-10-04T11:11:40.143Z,5.80
2018-10-04T11:14:07.374Z,6.83
2018-10-04T11:16:34.499Z,6.00
2018-10-04T11:19:01.610Z,6.00
2018-10-04T11:21:28.718Z,5.93
2018-10-04T11:23:55.823Z,5.90
2018-10-04T11:26:22.919Z,5.70
2018-10-04T11:28:50.007Z,4.70
2018-10-04T11:31:17.103Z,5.23
2018-10-04T11:33:44.307Z,5.23
2018-10-04T11:36:11.422Z,4.83
2018-10-04T11:38:38.576Z,5.27
2018-10-04T11:41:05.754Z,5.00
2018-10-04T11:43:32.909Z,5.20
2018-10-04T11:46:01.458Z,4.93
2018-10-04T11:48:30.580Z,4.00
2018-10-04T11:50:57.690Z,4.10
2018-10-04T11:53:24.783Z,3.97
2018-10-04T11:55:51.888Z,4.30
2018-10-04T11:58:18.999Z,4.40
2018-10-04T12:00:46.105Z,3.60
2018-10-04T12:03:13.286Z,4.30
2018-10-04T12:05:40.451Z,3.90
2018-10-04T12:08:07.568Z,3.90
2018-10-04T12:10:34.671Z,3.60
2018-10-04T12:13:01.875Z,4.10
2018-10-04T12:15:28.888Z,4.00
2018-10-04T12:17:55.970Z,4.00
2018-10-04T12:20:23.088Z,4.00
2018-10-04T12:22:50.170Z,3.63
2018-10-04T12:25:17.306Z,3.67
2018-10-04T12:27:44.533Z,3.90
2018-10-04T12:30:11.646Z,4.13
2018-10-04T12:32:38.730Z,3.73
2018-10-04T12:35:06.054Z,3.73
2018-10-04T12:37:33.212Z,4.00
2018-10-04T12:40:00.413Z,3.47
2018-10-04T12:42:27.509Z,3.43
2018-10-04T12:44:54.701Z,3.90
2018-10-04T12:47:21.794Z,3.00
2018-10-04T12:49:48.937Z,2.97
2018-10-04T12:52:16.068Z,3.20
2018-10-04T12:54:43.172Z,3.20
2018-10-04T12:57:10.367Z,3.10
2018-10-04T12:59:37.466Z,2.97
2018-10-04T13:02:04.565Z,2.93
2018-10-04T13:04:31.649Z,2.80
2018-10-04T13:06:58.964Z,2.33
2018-10-04T13:09:25.833Z,3.10
2018-10-04T13:11:52.929Z,2.90
2018-10-04T13:14:20.115Z,2.70
2018-10-04T13:16:47.208Z,2.90
2018-10-04T13:19:14.318Z,2.77
2018-10-04T13:21:41.643Z,2.57
2018-10-04T13:24:08.569Z,2.80
2018-10-04T13:26:35.716Z,2.80
2018-10-04T13:29:02.786Z,3.30
2018-10-04T13:31:31.958Z,2.80
2018-10-04T13:33:59.296Z,2.80
2018-10-04T13:36:26.495Z,3.00
2018-10-04T13:38:53.643Z,2.50
2018-10-04T13:41:20.743Z,2.90
2018-10-04T13:43:47.850Z,2.60
2018-10-04T13:46:15.023Z,2.90
2018-10-04T13:48:42.098Z,2.73
2018-10-04T13:51:09.266Z,2.27
2018-10-04T13:53:36.302Z,2.40
2018-10-04T13:56:03.660Z,2.70
2018-10-04T13:58:30.937Z,2.40
2018-10-04T14:00:58.139Z,2.70
2018-10-04T14:03:25.284Z,2.60
2018-10-04T14:05:52.407Z,2.33
2018-10-04T14:08:19.875Z,2.47
2018-10-04T14:10:46.987Z,2.50
2018-10-04T14:13:14.129Z,3.00
2018-10-04T14:15:41.214Z,2.23
2018-10-04T14:18:08.324Z,3.00
2018-10-04T14:20:35.461Z,2.80
2018-10-04T14:23:02.557Z,3.07
2018-10-04T14:25:29.678Z,3.30
2018-10-04T14:27:56.781Z,3.00
2018-10-04T14:30:23.935Z,3.07
2018-10-04T14:32:51.084Z,3.20
2018-10-04T14:35:18.155Z,3.03
2018-10-04T14:37:45.331Z,3.13
2018-10-04T14:40:12.518Z,3.03
2018-10-04T14:42:39.614Z,3.00
2018-10-04T14:45:06.714Z,3.03
2018-10-04T14:47:33.874Z,3.47
2018-10-04T14:50:01.014Z,3.00
2018-10-04T14:52:28.546Z,3.40
2018-10-04T14:54:56.084Z,3.50
2018-10-04T14:57:23.167Z,3.80
2018-10-04T14:59:50.274Z,3.67
2018-10-04T15:02:17.363Z,3.90
2018-10-04T15:04:44.470Z,3.47
2018-10-04T15:07:11.561Z,3.60
2018-10-04T15:09:38.799Z,3.97
2018-10-04T15:12:05.949Z,4.10
2018-10-04T15:14:33.165Z,3.80
2018-10-04T15:17:00.271Z,4.07
2018-10-04T15:19:27.484Z,5.00
2018-10-04T15:21:54.589Z,4.03
2018-10-04T15:24:21.753Z,4.50
2018-10-04T15:26:48.799Z,5.03
2018-10-04T15:29:15.897Z,4.53
2018-10-04T15:31:43.064Z,4.57
2018-10-04T15:34:10.271Z,5.30
2018-10-04T15:36:37.393Z,5.40
2018-10-04T15:39:05.887Z,4.57
2018-10-04T15:41:33.038Z,4.43
2018-10-04T15:44:00.232Z,5.17
2018-10-04T15:46:27.246Z,4.60
2018-10-04T15:48:54.331Z,4.67
2018-10-04T15:51:21.421Z,4.60
2018-10-04T15:53:48.522Z,3.77
2018-10-04T15:56:15.627Z,4.80
2018-10-04T15:58:42.734Z,4.80
2018-10-04T16:01:09.875Z,4.80
2018-10-04T16:03:37.001Z,5.30
2018-10-04T16:06:04.091Z,5.03
2018-10-04T16:08:31.199Z,4.90
2018-10-04T16:10:58.634Z,4.80
2018-10-04T16:13:25.734Z,4.57
2018-10-04T16:15:54.893Z,4.47
2018-10-04T16:18:27.406Z,5.03
2018-10-04T16:20:54.498Z,6.30
2018-10-04T16:23:21.626Z,9.37
2018-10-04T16:25:48.754Z,14.67
2018-10-04T16:28:15.901Z,13.90
2018-10-04T16:30:43.063Z,8.63
2018-10-04T16:33:10.174Z,7.23
2018-10-04T16:35:37.283Z,5.10
2018-10-04T16:38:04.414Z,5.50
2018-10-04T16:40:31.513Z,4.90
2018-10-04T16:42:58.699Z,4.90
2018-10-04T16:45:25.818Z,4.87
2018-10-04T16:47:52.917Z,4.90
2018-10-04T16:50:20.012Z,4.63
2018-10-04T16:52:47.421Z,5.03
2018-10-04T16:55:14.536Z,4.90
2018-10-04T16:57:41.770Z,5.20
2018-10-04T17:00:08.897Z,4.50
2018-10-04T17:02:36.022Z,4.33
2018-10-04T17:05:03.139Z,4.50
2018-10-04T17:07:30.274Z,5.10
2018-10-04T17:09:57.398Z,4.47
2018-10-04T17:12:24.859Z,4.80
2018-10-04T17:14:52.026Z,4.80
2018-10-04T17:17:19.061Z,4.87
2018-10-04T17:19:46.157Z,4.53
2018-10-04T17:22:13.309Z,4.73
2018-10-04T17:24:40.501Z,5.20
2018-10-04T17:27:07.614Z,4.73
2018-10-04T17:29:36.136Z,5.10
2018-10-04T17:32:03.191Z,4.67
2018-10-04T17:34:30.294Z,4.83
2018-10-04T17:36:57.394Z,5.50
2018-10-04T17:39:24.486Z,4.80
2018-10-04T17:41:51.618Z,5.23
2018-10-04T17:44:18.716Z,5.10
2018-10-04T17:46:45.866Z,5.67
2018-10-04T17:49:13.054Z,5.30
2018-10-04T17:51:40.163Z,5.43
2018-10-04T17:54:07.306Z,5.10
2018-10-04T17:56:34.377Z,6.07
2018-10-04T17:59:01.475Z,6.17
2018-10-04T18:01:28.575Z,8.60
2018-10-04T18:03:55.694Z,14.17
2018-10-04T18:06:22.839Z,19.17
2018-10-04T18:08:49.986Z,19.17
2018-10-04T18:11:17.645Z,12.10
2018-10-04T18:20:50.394Z,6.93
2018-10-04T18:23:17.529Z,7.00
2018-10-04T18:25:44.675Z,7.00
2018-10-04T18:28:11.775Z,6.87
2018-10-04T18:30:38.990Z,7.50
2018-10-04T18:33:06.087Z,7.47
2018-10-04T18:35:33.240Z,7.23
2018-10-04T18:38:00.397Z,6.53
2018-10-04T18:40:27.497Z,6.70
2018-10-04T18:42:54.602Z,6.07
2018-10-04T18:45:21.718Z,6.40
2018-10-04T18:47:48.813Z,6.40
2018-10-04T18:50:15.971Z,6.27
2018-10-04T18:52:43.183Z,6.20
2018-10-04T18:55:10.381Z,6.27
2018-10-04T18:57:37.533Z,5.73
2018-10-04T19:00:04.656Z,6.40
2018-10-04T19:02:31.725Z,5.87
2018-10-04T19:04:58.859Z,7.07
2018-10-04T19:07:26.033Z,7.20
2018-10-04T19:09:53.163Z,7.43
2018-10-04T19:12:20.260Z,7.10
2018-10-04T19:14:47.354Z,7.07
2018-10-04T19:17:14.576Z,6.97
2018-10-04T19:19:41.730Z,7.20
2018-10-04T19:22:08.869Z,7.07
2018-10-04T19:24:35.986Z,7.10
2018-10-04T19:27:03.106Z,7.80
2018-10-04T19:29:30.230Z,7.33
2018-10-04T19:31:57.334Z,8.20
2018-10-04T19:34:24.491Z,7.53
2018-10-04T19:36:51.616Z,7.50
2018-10-04T19:39:18.791Z,9.53
2018-10-04T19:41:45.913Z,12.80
2018-10-04T19:44:13.057Z,11.30
2018-10-04T19:46:40.204Z,10.53
2018-10-04T19:49:07.523Z,9.70
2018-10-04T19:51:34.604Z,8.37
2018-10-04T19:54:01.700Z,8.03
2018-10-04T19:56:28.819Z,7.37
2018-10-04T19:58:55.917Z,7.43
2018-10-04T20:01:23.016Z,7.30
2018-10-04T20:03:50.290Z,7.10
2018-10-04T20:06:17.219Z,6.20
2018-10-04T20:08:44.574Z,7.20
2018-10-04T20:11:11.742Z,6.80
2018-10-04T20:13:38.812Z,6.43
2018-10-04T20:16:06.088Z,6.70
2018-10-04T20:18:33.336Z,7.20
2018-10-04T20:21:00.459Z,7.20
2018-10-04T20:23:27.553Z,7.03
2018-10-04T20:25:54.660Z,7.37
2018-10-04T20:28:21.771Z,6.70
2018-10-04T20:30:48.897Z,7.30
2018-10-04T20:33:16.115Z,7.20
2018-10-04T20:35:43.304Z,7.63
2018-10-04T20:38:10.434Z,7.00
2018-10-04T20:40:37.636Z,7.27
2018-10-04T20:43:04.732Z,7.33
2018-10-04T20:45:31.856Z,7.00
2018-10-04T20:47:58.970Z,7.13
2018-10-04T20:50:26.075Z,7.87
2018-10-04T20:52:53.281Z,7.60
2018-10-04T20:55:20.446Z,7.27
2018-10-04T20:57:47.537Z,6.80
2018-10-04T21:00:14.958Z,6.97
2018-10-04T21:02:42.068Z,7.57
2018-10-04T21:05:09.185Z,7.13
2018-10-04T21:07:36.286Z,6.80
2018-10-04T21:10:03.376Z,7.03
2018-10-04T21:12:30.461Z,6.97
2018-10-04T21:14:57.599Z,7.17
2018-10-04T21:17:24.721Z,7.27
2018-10-04T21:19:51.882Z,7.20
2018-10-04T21:22:19.077Z,6.57
2018-10-04T21:24:46.130Z,7.00
2018-10-04T21:27:14.164Z,6.80
2018-10-04T21:29:41.336Z,6.37
2018-10-04T21:32:08.451Z,7.07
2018-10-04T21:34:35.584Z,7.00
2018-10-04T21:37:02.692Z,6.90
2018-10-04T21:39:29.870Z,6.70
2018-10-04T21:41:57.054Z,6.90
2018-10-04T21:44:24.183Z,6.80
2018-10-04T21:46:51.455Z,6.27
2018-10-04T21:49:18.566Z,6.40
2018-10-04T21:51:45.654Z,6.43
2018-10-04T21:54:12.778Z,6.30
2018-10-04T21:56:39.894Z,6.87
2018-10-04T21:59:07.104Z,6.03
2018-10-04T22:01:34.194Z,6.37
2018-10-04T22:04:01.303Z,6.20
2018-10-04T22:06:28.495Z,6.20
2018-10-04T22:08:55.598Z,6.10
2018-10-04T22:11:22.798Z,5.77
2018-10-04T22:13:56.543Z,5.97
2018-10-04T22:16:23.642Z,5.70
2018-10-04T22:18:50.748Z,6.50
2018-10-04T22:21:17.838Z,6.07
2018-10-04T22:23:44.942Z,6.30
2018-10-04T22:26:12.142Z,6.00
2018-10-04T22:28:39.236Z,6.00
2018-10-04T22:31:06.358Z,6.00
2018-10-04T22:33:33.467Z,6.03
2018-10-04T22:36:00.587Z,6.17
2018-10-04T22:38:27.765Z,6.00
2018-10-04T22:40:54.890Z,5.70
2018-10-04T22:43:22.001Z,6.10
2018-10-04T22:45:49.106Z,5.67
2018-10-04T22:48:16.259Z,5.60
2018-10-04T22:53:17.140Z,6.00
2018-10-04T22:55:44.239Z,5.40
2018-10-04T22:58:11.417Z,6.67
2018-10-04T23:00:38.446Z,5.67
2018-10-04T23:03:05.574Z,6.00
2018-10-04T23:05:32.789Z,5.80
2018-10-04T23:07:59.919Z,5.83
2018-10-04T23:10:27.003Z,5.80
2018-10-04T23:12:54.119Z,5.53
2018-10-04T23:15:21.329Z,5.60
2018-10-04T23:17:48.534Z,5.43
2018-10-04T23:20:15.674Z,5.50
2018-10-04T23:22:42.767Z,5.13
2018-10-04T23:25:09.870Z,5.40
2018-10-04T23:27:37.262Z,5.40
2018-10-04T23:30:04.766Z,5.80
2018-10-04T23:32:31.870Z,5.90
2018-10-04T23:34:59.034Z,5.60
2018-10-04T23:37:26.176Z,5.83
2018-10-04T23:39:53.330Z,5.40
2018-10-04T23:42:20.409Z,5.30
2018-10-04T23:44:47.548Z,5.60
2018-10-04T23:47:14.644Z,5.30
2018-10-04T23:49:41.746Z,5.10
2018-10-04T23:52:08.850Z,5.63
2018-10-04T23:54:35.959Z,4.80
2018-10-04T23:57:03.073Z,5.27
2018-10-04T23:59:30.236Z,5.00
